createdAt,value
2022-11-09T00:00:19.854Z,46.70
2022-11-09T00:01:21.818Z,46.90
2022-11-09T00:02:23.549Z,53.22
2022-11-09T00:03:25.354Z,48.67
2022-11-09T00:04:27.634Z,52.70
2022-11-09T00:05:29.279Z,34.33
2022-11-09T00:06:32.477Z,50.56
2022-11-09T00:07:34.307Z,47.10
2022-11-09T00:08:37.516Z,39.44
2022-11-09T00:09:39.961Z,50.50
2022-11-09T00:10:42.033Z,47.00
2022-11-09T00:11:43.786Z,50.78
2022-11-09T00:12:45.424Z,47.56
2022-11-09T00:13:47.865Z,49.89
2022-11-09T00:14:49.690Z,49.90
2022-11-09T00:15:51.897Z,43.89
2022-11-09T00:16:53.702Z,46.50
2022-11-09T00:17:55.875Z,40.33
2022-11-09T00:18:58.283Z,45.20
2022-11-09T00:20:00.203Z,26.30
2022-11-09T00:21:09.358Z,42.80
2022-11-09T00:22:12.267Z,37.50
2022-11-09T00:23:14.619Z,37.40
2022-11-09T00:24:16.543Z,41.20
2022-11-09T00:25:19.009Z,40.30
2022-11-09T00:26:21.894Z,40.09
2022-11-09T00:27:23.709Z,44.70
2022-11-09T00:28:26.431Z,45.89
2022-11-09T00:29:29.363Z,40.40
2022-11-09T00:30:31.185Z,41.78
2022-11-09T00:31:33.138Z,43.67
2022-11-09T00:32:35.797Z,43.33
2022-11-09T00:33:38.567Z,42.40
2022-11-09T00:34:40.301Z,47.22
2022-11-09T00:35:41.966Z,44.00
2022-11-09T00:36:43.824Z,44.67
2022-11-09T00:37:45.663Z,35.56
2022-11-09T00:38:50.268Z,42.11
2022-11-09T00:39:52.025Z,34.20
2022-11-09T00:40:58.941Z,43.55
2022-11-09T00:42:00.823Z,45.10
2022-11-09T00:43:04.583Z,39.30
2022-11-09T00:44:06.412Z,39.56
2022-11-09T00:45:10.068Z,39.50
2022-11-09T00:46:13.319Z,38.00
2022-11-09T00:47:17.650Z,37.40
2022-11-09T00:48:20.335Z,41.30
2022-11-09T00:49:22.064Z,40.80
2022-11-09T00:50:23.902Z,36.78
2022-11-09T00:51:26.419Z,47.22
2022-11-09T00:52:28.307Z,44.90
2022-11-09T00:53:31.141Z,42.44
2022-11-09T00:54:35.478Z,35.27
2022-11-09T00:55:37.421Z,43.30
2022-11-09T00:56:39.545Z,40.80
2022-11-09T00:57:42.386Z,37.00
2022-11-09T00:58:44.781Z,39.40
2022-11-09T00:59:46.511Z,45.22
2022-11-09T01:00:48.681Z,38.67
2022-11-09T01:01:50.574Z,41.20
2022-11-09T01:02:53.410Z,39.90
2022-11-09T01:03:55.268Z,35.33
2022-11-09T01:04:57.636Z,36.89
2022-11-09T01:06:00.887Z,37.20
2022-11-09T01:07:02.912Z,42.44
2022-11-09T01:08:05.974Z,39.00
2022-11-09T01:09:07.995Z,41.90
2022-11-09T01:10:12.507Z,41.10
2022-11-09T01:11:16.410Z,41.67
2022-11-09T01:12:18.266Z,41.20
2022-11-09T01:13:20.422Z,33.56
2022-11-09T01:14:23.337Z,40.40
2022-11-09T01:15:27.808Z,45.70
2022-11-09T01:16:31.037Z,39.50
2022-11-09T01:17:33.395Z,34.89
2022-11-09T01:18:36.221Z,46.60
2022-11-09T01:19:38.076Z,40.00
2022-11-09T01:20:45.441Z,44.11
2022-11-09T01:21:47.176Z,36.20
2022-11-09T01:22:49.139Z,38.44
2022-11-09T01:23:50.998Z,41.56
2022-11-09T01:24:53.822Z,42.30
2022-11-09T01:26:05.280Z,38.67
2022-11-09T01:27:07.162Z,38.90
2022-11-09T01:28:10.967Z,31.67
2022-11-09T01:29:13.293Z,43.80
2022-11-09T01:30:16.211Z,39.40
2022-11-09T01:31:20.489Z,25.40
2022-11-09T01:32:22.549Z,44.10
2022-11-09T01:33:24.219Z,44.89
2022-11-09T01:34:29.228Z,41.00
2022-11-09T01:35:36.153Z,39.90
2022-11-09T01:36:38.035Z,33.00
2022-11-09T01:37:39.694Z,44.11
2022-11-09T01:38:45.036Z,37.50
2022-11-09T01:39:46.808Z,39.90
2022-11-09T01:40:48.683Z,46.56
2022-11-09T01:41:50.548Z,41.11
2022-11-09T01:42:52.400Z,37.89
2022-11-09T01:44:09.551Z,44.33
2022-11-09T01:45:20.080Z,33.60
2022-11-09T01:46:25.970Z,41.90
2022-11-09T01:47:28.360Z,36.10
2022-11-09T01:48:39.908Z,38.20
2022-11-09T01:51:11.445Z,34.40
2022-11-09T01:52:32.319Z,41.20
2022-11-09T01:53:40.019Z,43.30
2022-11-09T01:54:46.635Z,43.00
2022-11-09T01:55:53.767Z,34.90
2022-11-09T01:56:59.909Z,38.40
2022-11-09T01:58:06.395Z,48.80
2022-11-09T01:59:12.172Z,38.00
2022-11-09T02:00:16.213Z,39.20
2022-11-09T02:01:18.746Z,37.60
2022-11-09T02:02:21.351Z,46.30
2022-11-09T02:03:33.494Z,42.60
2022-11-09T02:04:38.986Z,35.20
2022-11-09T02:05:42.212Z,35.30
2022-11-09T02:06:46.398Z,42.50
2022-11-09T02:07:49.714Z,43.60
2022-11-09T02:08:55.782Z,41.90
2022-11-09T02:10:09.887Z,42.00
2022-11-09T02:11:15.305Z,40.10
2022-11-09T02:12:20.775Z,43.90
2022-11-09T02:13:26.413Z,37.30
2022-11-09T02:14:31.594Z,35.20
2022-11-09T02:15:35.406Z,40.70
2022-11-09T02:16:41.406Z,37.90
2022-11-09T02:17:45.385Z,44.20
2022-11-09T02:18:51.771Z,36.30
2022-11-09T02:20:00.514Z,42.30
2022-11-09T02:21:04.244Z,40.20
2022-11-09T02:22:06.789Z,38.30
2022-11-09T02:23:08.702Z,39.80
2022-11-09T02:24:12.695Z,30.56
2022-11-09T02:25:16.988Z,42.70
2022-11-09T02:27:32.575Z,35.70
2022-11-09T02:28:38.732Z,37.90
2022-11-09T02:29:44.253Z,41.20
2022-11-09T02:30:51.113Z,44.30
2022-11-09T02:31:58.307Z,44.70
2022-11-09T02:33:00.248Z,43.00
2022-11-09T02:34:05.792Z,38.89
2022-11-09T02:35:09.479Z,38.80
2022-11-09T02:36:12.026Z,45.30
2022-11-09T02:37:29.950Z,40.22
2022-11-09T02:38:33.472Z,38.00
2022-11-09T02:39:37.798Z,40.90
2022-11-09T02:40:43.026Z,41.50
2022-11-09T02:41:51.478Z,38.90
2022-11-09T02:42:54.131Z,42.20
2022-11-09T02:43:56.817Z,36.36
2022-11-09T02:44:59.693Z,41.90
2022-11-09T02:46:02.446Z,44.18
2022-11-09T02:47:05.098Z,37.90
2022-11-09T02:48:06.841Z,51.56
2022-11-09T02:49:10.598Z,39.40
2022-11-09T02:50:13.240Z,43.09
2022-11-09T02:51:14.878Z,48.11
2022-11-09T02:52:19.390Z,42.90
2022-11-09T02:53:21.591Z,46.50
2022-11-09T02:54:23.808Z,40.10
2022-11-09T02:55:27.019Z,39.50
2022-11-09T02:56:29.255Z,39.60
2022-11-09T02:57:31.195Z,39.00
2022-11-09T02:58:33.594Z,38.30
2022-11-09T02:59:36.281Z,37.20
2022-11-09T03:00:38.347Z,43.80
2022-11-09T03:01:40.361Z,41.11
2022-11-09T03:02:42.383Z,37.89
2022-11-09T03:03:44.013Z,30.78
2022-11-09T03:04:47.609Z,41.60
2022-11-09T03:05:49.512Z,36.30
2022-11-09T03:06:51.835Z,41.00
2022-11-09T03:07:54.126Z,44.50
2022-11-09T03:08:56.643Z,39.00
2022-11-09T03:09:58.710Z,39.78
2022-11-09T03:11:01.119Z,39.30
2022-11-09T03:12:03.796Z,46.20
2022-11-09T03:13:05.561Z,41.00
2022-11-09T03:14:08.022Z,39.56
2022-11-09T03:15:10.970Z,36.60
2022-11-09T03:16:14.715Z,29.90
2022-11-09T03:17:16.980Z,38.11
2022-11-09T03:18:18.960Z,36.70
2022-11-09T03:19:20.707Z,33.44
2022-11-09T03:20:25.065Z,44.40
2022-11-09T03:21:28.666Z,43.50
2022-11-09T03:22:30.627Z,39.50
2022-11-09T03:23:33.318Z,41.20
2022-11-09T03:24:35.632Z,40.80
2022-11-09T03:25:38.788Z,45.30
2022-11-09T03:26:40.768Z,42.10
2022-11-09T03:27:42.506Z,42.44
2022-11-09T03:28:45.125Z,39.60
2022-11-09T03:29:47.135Z,39.30
2022-11-09T03:30:50.171Z,36.60
2022-11-09T03:31:52.726Z,37.80
2022-11-09T03:33:03.277Z,40.10
2022-11-09T03:34:05.454Z,37.40
2022-11-09T03:35:09.590Z,42.70
2022-11-09T03:36:12.110Z,39.70
2022-11-09T03:37:14.485Z,34.60
2022-11-09T03:38:17.577Z,33.00
2022-11-09T03:39:19.592Z,38.00
2022-11-09T03:40:21.901Z,35.90
2022-11-09T03:41:25.056Z,44.00
2022-11-09T03:42:26.967Z,33.20
2022-11-09T03:43:29.740Z,41.70
2022-11-09T03:44:31.778Z,28.90
2022-11-09T03:45:34.189Z,41.50
2022-11-09T03:46:36.193Z,34.80
2022-11-09T03:47:45.515Z,35.33
2022-11-09T03:48:47.370Z,37.40
2022-11-09T03:49:49.106Z,38.44
2022-11-09T03:50:51.159Z,37.89
2022-11-09T03:51:53.151Z,34.80
2022-11-09T03:52:56.585Z,33.56
2022-11-09T03:53:59.461Z,38.60
2022-11-09T03:55:02.219Z,33.18
2022-11-09T03:56:05.715Z,36.00
2022-11-09T03:57:07.678Z,40.70
2022-11-09T03:58:11.220Z,35.33
2022-11-09T03:59:13.073Z,38.70
2022-11-09T04:00:18.156Z,32.80
2022-11-09T04:01:21.727Z,36.10
2022-11-09T04:02:23.915Z,34.78
2022-11-09T04:03:25.803Z,36.70
2022-11-09T04:04:27.565Z,30.33
2022-11-09T04:05:29.310Z,37.00
2022-11-09T04:06:31.292Z,35.22
2022-11-09T04:07:34.064Z,31.90
2022-11-09T04:08:36.245Z,19.91
2022-11-09T04:09:38.328Z,32.90
2022-11-09T04:10:40.352Z,32.70
2022-11-09T04:11:42.236Z,28.80
2022-11-09T04:12:44.471Z,33.56
2022-11-09T04:13:46.258Z,35.50
2022-11-09T04:14:47.994Z,33.33
2022-11-09T04:15:50.230Z,32.00
2022-11-09T04:16:52.138Z,34.50
2022-11-09T04:17:55.788Z,34.00
2022-11-09T04:18:57.789Z,32.20
2022-11-09T04:19:59.581Z,30.11
2022-11-09T04:21:02.514Z,32.67
2022-11-09T04:22:04.477Z,36.36
2022-11-09T04:23:09.296Z,31.80
2022-11-09T04:24:11.419Z,29.20
2022-11-09T04:25:13.343Z,35.70
2022-11-09T04:26:16.127Z,35.00
2022-11-09T04:27:17.826Z,33.50
2022-11-09T04:28:19.882Z,30.67
2022-11-09T04:29:21.631Z,31.89
2022-11-09T04:30:25.299Z,24.33
2022-11-09T04:31:28.519Z,33.90
2022-11-09T04:32:30.613Z,30.20
2022-11-09T04:33:32.361Z,34.56
2022-11-09T04:34:34.188Z,28.89
2022-11-09T04:35:36.334Z,34.33
2022-11-09T04:36:38.274Z,29.80
2022-11-09T04:37:40.015Z,16.33
2022-11-09T04:38:41.829Z,29.00
2022-11-09T04:39:44.731Z,31.00
2022-11-09T04:40:46.790Z,34.00
2022-11-09T04:41:48.953Z,29.78
2022-11-09T04:42:52.091Z,27.90
2022-11-09T04:43:54.055Z,30.45
2022-11-09T04:44:55.729Z,31.44
2022-11-09T04:46:01.852Z,30.33
2022-11-09T04:47:04.396Z,34.40
2022-11-09T04:48:07.522Z,34.80
2022-11-09T04:49:09.477Z,29.20
2022-11-09T04:50:12.593Z,31.50
2022-11-09T04:51:14.920Z,30.20
2022-11-09T04:52:17.871Z,36.10
2022-11-09T04:53:19.968Z,23.45
2022-11-09T04:54:22.155Z,29.70
2022-11-09T04:55:23.915Z,27.11
2022-11-09T04:56:25.868Z,36.33
2022-11-09T04:57:27.758Z,28.89
2022-11-09T04:58:31.134Z,30.67
2022-11-09T04:59:32.962Z,35.90
2022-11-09T05:00:35.929Z,32.78
2022-11-09T05:01:37.943Z,30.91
2022-11-09T05:02:39.849Z,32.40
2022-11-09T05:03:42.083Z,30.56
2022-11-09T05:04:44.187Z,31.70
2022-11-09T05:05:48.529Z,31.22
2022-11-09T05:06:49.953Z,28.00
2022-11-09T05:07:51.892Z,33.11
2022-11-09T05:08:54.775Z,28.78
2022-11-09T05:09:56.745Z,32.00
2022-11-09T05:10:58.671Z,33.80
2022-11-09T05:12:01.438Z,32.44
2022-11-09T05:13:06.363Z,32.70
2022-11-09T05:14:08.250Z,31.10
2022-11-09T05:15:10.782Z,33.20
2022-11-09T05:16:12.838Z,38.10
2022-11-09T05:17:14.754Z,43.10
2022-11-09T05:18:16.480Z,36.22
2022-11-09T05:19:18.252Z,35.11
2022-11-09T05:20:20.218Z,36.56
2022-11-09T05:21:22.208Z,40.00
2022-11-09T05:22:24.110Z,36.33
2022-11-09T05:23:26.267Z,34.40
2022-11-09T05:24:28.211Z,31.50
2022-11-09T05:25:30.218Z,33.60
2022-11-09T05:26:37.956Z,32.50
2022-11-09T05:27:39.838Z,33.40
2022-11-09T05:28:41.772Z,31.67
2022-11-09T05:29:43.560Z,30.89
2022-11-09T05:30:45.550Z,30.89
2022-11-09T05:31:52.050Z,33.50
2022-11-09T05:32:51.469Z,31.20
2022-11-09T05:33:53.934Z,33.50
2022-11-09T05:34:55.661Z,32.00
2022-11-09T05:35:57.627Z,35.11
2022-11-09T05:37:03.555Z,35.33
2022-11-09T05:38:04.115Z,27.10
2022-11-09T05:39:05.905Z,33.78
2022-11-09T05:40:09.508Z,31.90
2022-11-09T05:41:12.197Z,42.20
2022-11-09T05:42:14.215Z,22.70
2022-11-09T05:43:17.926Z,32.10
2022-11-09T05:44:20.450Z,31.50
2022-11-09T05:45:41.587Z,32.30
2022-11-09T05:46:26.259Z,31.90
2022-11-09T05:47:28.117Z,30.33
2022-11-09T05:48:30.181Z,43.00
2022-11-09T05:49:32.212Z,29.70
2022-11-09T05:50:34.693Z,37.22
2022-11-09T05:51:53.390Z,30.80
2022-11-09T05:53:00.155Z,36.56
2022-11-09T05:54:02.389Z,32.30
2022-11-09T05:55:05.519Z,34.50
2022-11-09T05:56:10.059Z,23.91
2022-11-09T05:57:12.349Z,32.10
2022-11-09T05:58:14.576Z,39.80
2022-11-09T05:59:16.135Z,36.30
2022-11-09T06:00:18.587Z,33.00
2022-11-09T06:01:20.219Z,30.20
2022-11-09T06:02:21.962Z,34.22
2022-11-09T06:03:24.233Z,34.70
2022-11-09T06:04:26.017Z,31.78
2022-11-09T06:05:27.851Z,37.89
2022-11-09T06:06:30.172Z,28.80
2022-11-09T06:07:32.904Z,34.50
2022-11-09T06:08:35.218Z,29.90
2022-11-09T06:09:37.142Z,26.80
2022-11-09T06:10:40.505Z,31.40
2022-11-09T06:11:42.540Z,24.50
2022-11-09T06:12:44.306Z,31.22
2022-11-09T06:13:46.101Z,30.89
2022-11-09T06:14:48.013Z,32.67
2022-11-09T06:15:57.847Z,29.67
2022-11-09T06:16:59.834Z,29.20
2022-11-09T06:18:02.591Z,29.56
2022-11-09T06:19:04.320Z,35.20
2022-11-09T06:20:07.427Z,29.70
2022-11-09T06:21:10.011Z,24.82
2022-11-09T06:22:14.038Z,25.10
2022-11-09T06:23:16.339Z,28.20
2022-11-09T06:24:18.688Z,27.70
2022-11-09T06:25:22.437Z,26.80
2022-11-09T06:26:24.374Z,24.00
2022-11-09T06:27:27.648Z,29.33
2022-11-09T06:28:29.795Z,31.30
2022-11-09T06:29:31.732Z,24.60
2022-11-09T06:30:33.971Z,28.44
2022-11-09T06:31:36.973Z,29.10
2022-11-09T06:32:38.882Z,29.40
2022-11-09T06:33:40.644Z,25.89
2022-11-09T06:34:43.465Z,28.67
2022-11-09T06:35:45.461Z,23.91
2022-11-09T06:36:47.501Z,31.30
2022-11-09T06:37:58.302Z,34.70
2022-11-09T06:39:01.390Z,25.60
2022-11-09T06:40:04.289Z,22.30
2022-11-09T06:41:06.347Z,26.45
2022-11-09T06:42:08.311Z,26.80
2022-11-09T06:43:12.796Z,30.20
2022-11-09T06:44:14.884Z,29.30
2022-11-09T06:45:17.382Z,29.67
2022-11-09T06:46:19.301Z,22.80
2022-11-09T06:47:21.266Z,28.00
2022-11-09T06:48:23.321Z,26.33
2022-11-09T06:49:25.247Z,28.60
2022-11-09T06:50:29.561Z,26.80
2022-11-09T06:51:31.407Z,32.90
2022-11-09T06:52:33.092Z,29.44
2022-11-09T06:53:35.123Z,32.11
2022-11-09T06:54:37.011Z,25.70
2022-11-09T06:55:39.641Z,27.56
2022-11-09T06:56:41.461Z,25.40
2022-11-09T06:57:43.722Z,27.22
2022-11-09T06:58:45.468Z,23.78
2022-11-09T06:59:47.324Z,28.33
2022-11-09T07:00:49.363Z,28.33
2022-11-09T07:01:51.387Z,21.78
2022-11-09T07:02:53.591Z,33.50
2022-11-09T07:03:55.581Z,31.40
2022-11-09T07:04:57.543Z,28.20
2022-11-09T07:06:03.086Z,33.22
2022-11-09T07:07:07.307Z,28.10
2022-11-09T07:08:10.168Z,32.00
2022-11-09T07:09:12.765Z,30.30
2022-11-09T07:10:15.657Z,26.09
2022-11-09T07:11:17.473Z,31.30
2022-11-09T07:12:19.138Z,26.67
2022-11-09T07:13:22.235Z,33.44
2022-11-09T07:14:24.371Z,28.40
2022-11-09T07:15:26.230Z,30.11
2022-11-09T07:16:29.583Z,37.67
2022-11-09T07:17:32.758Z,36.80
2022-11-09T07:18:35.478Z,50.60
2022-11-09T07:19:37.880Z,48.80
2022-11-09T07:20:39.883Z,47.30
2022-11-09T07:21:41.803Z,55.20
2022-11-09T07:22:43.794Z,53.89
2022-11-09T07:23:47.656Z,48.11
2022-11-09T07:24:49.868Z,35.80
2022-11-09T07:25:51.864Z,38.90
2022-11-09T07:26:54.210Z,38.40
2022-11-09T07:27:59.678Z,38.90
2022-11-09T07:29:01.583Z,43.10
2022-11-09T07:30:06.881Z,47.10
2022-11-09T07:31:09.355Z,35.80
2022-11-09T07:32:11.200Z,30.80
2022-11-09T07:33:15.851Z,31.11
2022-11-09T07:34:17.872Z,23.70
2022-11-09T07:35:19.635Z,24.40
2022-11-09T07:36:21.931Z,30.56
2022-11-09T07:37:24.057Z,28.70
2022-11-09T07:38:27.811Z,34.00
2022-11-09T07:39:29.873Z,27.80
2022-11-09T07:40:31.978Z,22.80
2022-11-09T07:41:34.957Z,23.44
2022-11-09T07:42:37.113Z,16.30
2022-11-09T07:43:39.922Z,25.00
2022-11-09T07:44:42.112Z,23.36
2022-11-09T07:45:43.793Z,29.70
2022-11-09T07:46:51.392Z,24.44
2022-11-09T07:49:08.733Z,28.40
2022-11-09T07:50:10.573Z,23.22
2022-11-09T07:51:12.603Z,20.67
2022-11-09T07:52:14.534Z,23.90
2022-11-09T07:53:16.675Z,23.11
2022-11-09T07:54:19.055Z,27.40
2022-11-09T07:55:21.189Z,24.40
2022-11-09T07:56:23.086Z,22.00
2022-11-09T07:57:24.914Z,26.67
2022-11-09T07:58:26.880Z,21.78
2022-11-09T07:59:28.531Z,19.11
2022-11-09T08:00:31.788Z,15.11
2022-11-09T08:01:33.821Z,17.40
2022-11-09T08:02:36.222Z,24.78
2022-11-09T08:03:38.520Z,21.50
2022-11-09T08:04:40.246Z,24.80
2022-11-09T08:05:42.112Z,23.22
2022-11-09T08:06:44.268Z,19.33
2022-11-09T08:07:46.374Z,23.50
2022-11-09T08:08:48.868Z,24.60
2022-11-09T08:09:50.858Z,15.50
2022-11-09T08:10:53.832Z,23.40
2022-11-09T08:11:55.597Z,21.09
2022-11-09T08:13:00.070Z,20.22
2022-11-09T08:14:02.016Z,23.00
2022-11-09T08:15:05.452Z,24.33
2022-11-09T08:16:08.836Z,21.50
2022-11-09T08:17:10.964Z,22.80
2022-11-09T08:18:19.908Z,22.90
2022-11-09T08:19:22.448Z,21.40
2022-11-09T08:20:24.251Z,15.00
2022-11-09T08:21:26.116Z,12.33
2022-11-09T08:22:28.426Z,15.80
2022-11-09T08:23:31.347Z,13.80
2022-11-09T08:24:33.324Z,10.73
2022-11-09T08:25:35.764Z,13.67
2022-11-09T08:26:37.660Z,12.60
2022-11-09T08:27:40.390Z,18.89
2022-11-09T08:28:42.296Z,20.10
2022-11-09T08:29:44.792Z,16.00
2022-11-09T08:30:56.440Z,15.50
2022-11-09T08:31:58.996Z,17.40
2022-11-09T08:33:02.602Z,17.30
2022-11-09T08:34:04.886Z,16.30
2022-11-09T08:35:09.254Z,14.00
2022-11-09T08:36:15.296Z,17.50
2022-11-09T08:37:17.371Z,17.10
2022-11-09T08:38:19.526Z,20.78
2022-11-09T08:39:23.431Z,18.80
2022-11-09T08:40:25.865Z,22.30
2022-11-09T08:41:28.509Z,11.90
2022-11-09T08:42:30.390Z,20.50
2022-11-09T08:43:32.383Z,19.70
2022-11-09T08:44:34.186Z,18.80
2022-11-09T08:45:39.010Z,15.56
2022-11-09T08:46:41.587Z,15.10
2022-11-09T08:47:44.905Z,18.27
2022-11-09T08:48:47.507Z,15.40
2022-11-09T08:49:49.499Z,16.50
2022-11-09T08:50:54.462Z,16.22
2022-11-09T08:51:56.403Z,14.00
2022-11-09T08:53:02.540Z,18.78
2022-11-09T08:54:04.595Z,14.30
2022-11-09T08:55:07.562Z,14.30
2022-11-09T08:56:10.038Z,17.20
2022-11-09T08:57:12.698Z,16.00
2022-11-09T08:58:14.983Z,16.60
2022-11-09T08:59:16.818Z,14.60
2022-11-09T09:00:20.994Z,15.90
2022-11-09T09:01:23.022Z,15.20
2022-11-09T09:02:25.179Z,14.90
2022-11-09T09:03:27.080Z,15.40
2022-11-09T09:04:29.019Z,14.78
2022-11-09T09:05:31.824Z,15.10
2022-11-09T09:06:33.970Z,16.00
2022-11-09T09:07:36.337Z,18.60
2022-11-09T09:08:38.130Z,20.00
2022-11-09T09:09:40.061Z,12.78
2022-11-09T09:10:43.054Z,15.70
2022-11-09T09:11:45.187Z,11.40
2022-11-09T09:12:48.125Z,12.40
2022-11-09T09:13:50.273Z,11.70
2022-11-09T09:14:53.255Z,12.80
2022-11-09T09:15:56.218Z,15.10
2022-11-09T09:16:58.221Z,13.36
2022-11-09T09:18:01.566Z,11.44
2022-11-09T09:19:04.166Z,11.10
2022-11-09T09:20:06.919Z,11.40
2022-11-09T09:21:11.229Z,11.50
2022-11-09T09:22:13.804Z,12.90
2022-11-09T09:23:16.437Z,11.00
2022-11-09T09:24:18.784Z,13.00
2022-11-09T09:25:20.561Z,9.90
2022-11-09T09:26:22.753Z,11.40
2022-11-09T09:27:25.678Z,12.50
2022-11-09T09:28:27.722Z,13.70
2022-11-09T09:29:29.729Z,8.80
2022-11-09T09:30:31.448Z,11.56
2022-11-09T09:31:33.315Z,11.89
2022-11-09T09:32:35.394Z,14.33
2022-11-09T09:33:38.226Z,11.70
2022-11-09T09:34:40.372Z,10.80
2022-11-09T09:35:43.242Z,10.50
2022-11-09T09:36:48.176Z,10.27
2022-11-09T09:37:50.083Z,10.40
2022-11-09T09:38:54.440Z,9.00
2022-11-09T09:39:56.381Z,12.80
2022-11-09T09:42:17.688Z,10.10
2022-11-09T09:43:29.438Z,10.80
2022-11-09T09:44:41.072Z,10.10
2022-11-09T09:45:46.576Z,12.40
2022-11-09T09:47:13.643Z,14.60
2022-11-09T09:48:41.892Z,11.40
2022-11-09T09:49:48.622Z,10.80
2022-11-09T09:50:53.421Z,8.80
2022-11-09T09:53:38.886Z,10.30
2022-11-09T09:54:45.859Z,9.70
2022-11-09T09:57:01.628Z,9.40
2022-11-09T09:58:24.035Z,8.73
2022-11-09T10:04:41.225Z,8.60
2022-11-09T10:05:59.317Z,6.50
2022-11-09T10:07:24.512Z,10.20
2022-11-09T10:08:34.184Z,4.70
2022-11-09T10:09:43.731Z,9.90
2022-11-09T14:17:19.816Z,16.60
2022-11-09T14:20:47.719Z,11.60
2022-11-09T14:25:01.494Z,18.80
2022-11-09T14:26:24.468Z,19.10
2022-11-09T14:27:49.743Z,16.70
2022-11-09T14:29:14.596Z,16.40
2022-11-09T14:30:38.939Z,19.60
2022-11-09T14:32:18.127Z,20.30
2022-11-09T14:33:38.715Z,16.90
2022-11-09T14:35:24.078Z,16.80
2022-11-09T14:36:47.141Z,19.20
2022-11-09T14:38:20.577Z,19.00
2022-11-09T14:39:41.235Z,12.80
2022-11-09T14:41:03.582Z,18.00
2022-11-09T14:42:23.828Z,20.30
2022-11-09T14:43:44.884Z,17.50
2022-11-09T14:45:10.131Z,19.20
2022-11-09T14:46:30.989Z,23.00
2022-11-09T14:47:55.938Z,21.00
2022-11-09T14:49:16.631Z,21.30
2022-11-09T14:50:37.654Z,18.90
2022-11-09T14:51:59.055Z,19.40
2022-11-09T14:53:28.659Z,20.10
2022-11-09T14:54:50.779Z,20.90
2022-11-09T14:56:15.394Z,17.70
2022-11-09T14:57:38.303Z,21.10
2022-11-09T14:59:02.797Z,18.10
2022-11-09T15:00:29.773Z,21.40
2022-11-09T15:01:59.782Z,23.10
2022-11-09T15:03:29.491Z,22.20
2022-11-09T15:04:56.792Z,19.00
2022-11-09T15:06:17.527Z,23.40
2022-11-09T15:07:38.682Z,6.30
2022-11-09T15:09:05.822Z,21.50
2022-11-09T15:10:27.782Z,21.40
2022-11-09T15:11:49.146Z,20.50
2022-11-09T15:13:09.943Z,19.50
2022-11-09T15:14:33.536Z,23.60
2022-11-09T15:15:56.084Z,20.10
2022-11-09T15:17:26.144Z,18.30
2022-11-09T15:18:48.365Z,18.80
2022-11-09T15:20:12.613Z,21.10
2022-11-09T15:21:36.464Z,19.70
2022-11-09T15:23:06.540Z,18.70
2022-11-09T15:24:28.902Z,20.10
2022-11-09T15:25:54.857Z,19.50
2022-11-09T15:27:33.669Z,18.40
2022-11-09T15:28:54.334Z,21.20
2022-11-09T15:30:46.097Z,15.80
2022-11-09T15:32:12.906Z,22.40
2022-11-09T15:33:46.921Z,24.20
2022-11-09T15:35:14.126Z,19.50
2022-11-09T15:36:38.950Z,15.30
2022-11-09T15:37:59.470Z,25.60
2022-11-09T15:39:21.134Z,25.40
2022-11-09T15:40:42.145Z,20.80
2022-11-09T15:42:03.343Z,26.30
2022-11-09T15:43:24.861Z,15.40
2022-11-09T15:44:46.405Z,23.90
2022-11-09T15:46:07.168Z,24.40
2022-11-09T15:47:33.944Z,16.40
2022-11-09T15:48:58.405Z,26.80
2022-11-09T15:50:23.057Z,27.10
2022-11-09T15:51:44.308Z,24.70
2022-11-09T15:53:04.647Z,22.80
2022-11-09T15:54:26.236Z,27.80
2022-11-09T15:55:48.207Z,22.90
2022-11-09T15:57:12.353Z,25.70
2022-11-09T15:58:33.043Z,19.90
2022-11-09T15:59:53.544Z,25.80
2022-11-09T16:01:15.733Z,27.50
2022-11-09T16:02:36.157Z,33.00
2022-11-09T16:03:56.880Z,35.10
2022-11-09T16:05:17.377Z,33.70
2022-11-09T16:06:41.323Z,34.10
2022-11-09T16:08:00.889Z,33.30
2022-11-09T16:09:22.205Z,29.40
2022-11-09T16:10:43.917Z,32.10
2022-11-09T16:12:05.129Z,36.40
2022-11-09T16:13:26.115Z,38.90
2022-11-09T16:14:46.597Z,32.70
2022-11-09T16:16:10.027Z,33.80
2022-11-09T16:17:30.871Z,38.90
2022-11-09T16:18:52.461Z,38.00
2022-11-09T16:20:13.336Z,39.30
2022-11-09T16:21:34.773Z,41.70
2022-11-09T16:22:56.885Z,40.20
2022-11-09T16:24:18.301Z,39.00
2022-11-09T16:25:39.190Z,36.00
2022-11-09T16:27:00.230Z,35.70
2022-11-09T16:28:20.900Z,36.80
2022-11-09T16:29:42.394Z,47.50
2022-11-09T16:31:04.191Z,40.20
2022-11-09T16:32:24.980Z,37.20
2022-11-09T16:33:45.358Z,38.50
2022-11-09T16:35:26.229Z,36.10
2022-11-09T16:36:33.564Z,39.10
2022-11-09T16:37:57.575Z,39.20
2022-11-09T16:39:18.918Z,37.70
2022-11-09T16:40:41.820Z,38.50
2022-11-09T16:42:06.129Z,32.40
2022-11-09T16:43:31.503Z,34.20
2022-11-09T16:44:52.565Z,39.40
2022-11-09T16:46:18.034Z,36.60
2022-11-09T16:47:42.216Z,37.60
2022-11-09T16:49:03.897Z,37.10
2022-11-09T16:50:24.315Z,40.20
2022-11-09T16:51:45.814Z,36.40
2022-11-09T16:53:08.755Z,33.30
2022-11-09T16:54:31.632Z,34.50
2022-11-09T16:55:53.297Z,41.80
2022-11-09T16:57:15.339Z,41.60
2022-11-09T16:58:37.663Z,38.30
2022-11-09T17:00:00.205Z,41.90
2022-11-09T17:01:23.586Z,37.60
2022-11-09T17:02:43.186Z,40.50
2022-11-09T17:04:04.353Z,37.70
2022-11-09T17:05:24.878Z,40.70
2022-11-09T17:06:45.400Z,37.80
2022-11-09T17:08:07.338Z,43.40
2022-11-09T17:09:27.472Z,36.80
2022-11-09T17:10:47.858Z,37.40
2022-11-09T17:12:09.008Z,38.10
2022-11-09T17:13:33.032Z,38.00
2022-11-09T17:14:54.522Z,41.50
2022-11-09T17:16:17.445Z,38.40
2022-11-09T17:17:40.102Z,39.00
2022-11-09T17:19:01.853Z,40.90
2022-11-09T17:20:24.092Z,42.30
2022-11-09T17:21:47.397Z,40.70
2022-11-09T17:23:09.953Z,36.30
2022-11-09T17:24:33.004Z,40.70
2022-11-09T17:25:59.461Z,37.60
2022-11-09T17:27:19.774Z,38.90
2022-11-09T17:28:43.159Z,37.10
2022-11-09T17:30:06.502Z,35.60
2022-11-09T17:31:26.893Z,40.00
2022-11-09T17:32:49.339Z,37.60
2022-11-09T17:34:11.316Z,37.00
2022-11-09T17:35:33.633Z,40.40
2022-11-09T17:37:04.127Z,40.10
2022-11-09T17:38:20.030Z,44.90
2022-11-09T17:39:40.711Z,34.00
2022-11-09T17:41:10.988Z,36.90
2022-11-09T17:42:33.715Z,43.70
2022-11-09T17:43:55.185Z,36.00
2022-11-09T17:45:15.661Z,38.50
2022-11-09T17:46:37.771Z,36.00
2022-11-09T17:47:58.213Z,45.10
2022-11-09T17:49:19.278Z,43.10
2022-11-09T17:50:40.564Z,40.90
2022-11-09T17:52:01.559Z,41.40
2022-11-09T17:53:22.274Z,39.50
2022-11-09T17:54:42.884Z,41.80
2022-11-09T17:56:05.403Z,37.60
2022-11-09T17:57:26.615Z,39.70
2022-11-09T17:58:47.075Z,38.30
2022-11-09T18:00:09.284Z,43.50
2022-11-09T18:01:30.331Z,37.40
2022-11-09T18:02:59.221Z,35.80
2022-11-09T18:04:20.082Z,35.80
2022-11-09T18:05:42.761Z,32.50
2022-11-09T18:07:03.867Z,37.10
2022-11-09T18:08:25.245Z,37.70
2022-11-09T18:09:45.754Z,45.20
2022-11-09T18:11:06.347Z,40.10
2022-11-09T18:12:30.178Z,40.20
2022-11-09T18:13:51.148Z,39.50
2022-11-09T18:15:11.559Z,42.20
2022-11-09T18:16:31.991Z,39.60
2022-11-09T18:17:54.488Z,46.20
2022-11-09T18:19:15.170Z,43.90
2022-11-09T18:20:38.102Z,40.00
2022-11-09T18:22:02.653Z,38.80
2022-11-09T18:23:21.580Z,38.30
2022-11-09T18:24:42.126Z,42.50
2022-11-09T18:26:04.254Z,42.30
2022-11-09T18:27:30.319Z,47.80
2022-11-09T18:28:49.089Z,46.30
2022-11-09T18:30:10.884Z,42.50
2022-11-09T18:31:31.580Z,36.00
2022-11-09T21:24:31.139Z,68.70
2022-11-09T21:25:51.509Z,72.80
2022-11-09T21:27:13.327Z,68.90
2022-11-09T21:28:33.766Z,73.70
2022-11-09T21:29:55.673Z,67.20
2022-11-09T21:31:16.341Z,67.00
2022-11-09T21:32:38.375Z,57.70
2022-11-09T21:33:58.789Z,49.80
2022-11-09T21:35:19.771Z,54.20
2022-11-09T21:36:42.597Z,54.50
2022-11-09T21:38:03.363Z,54.90
2022-11-09T21:39:23.729Z,51.50
2022-11-09T21:40:44.344Z,48.80
2022-11-09T21:42:05.303Z,52.40
2022-11-09T21:43:26.168Z,50.90
2022-11-09T21:44:46.813Z,49.20
2022-11-09T21:46:07.642Z,56.60
2022-11-09T21:47:27.770Z,53.30
2022-11-09T21:48:49.214Z,53.20
2022-11-09T21:50:12.796Z,53.20
2022-11-09T21:51:34.530Z,51.00
2022-11-09T21:52:55.886Z,43.70
2022-11-09T21:54:16.759Z,48.90
2022-11-09T21:55:37.052Z,43.90
2022-11-09T21:56:57.782Z,49.40
2022-11-09T21:58:18.133Z,51.90
2022-11-09T21:59:38.928Z,53.70